Time;durP1;ratioP1;P1;durP2;ratioP2;P2;SDS_P1;SDS_P2;PMS_P1;PMS_P2;Temp;Humidity;BMP_temperature;BMP_pressure;BME280_temperature;BME280_humidity;BME280_pressure;Samples;Min_cycle;Max_cycle;Signal;HPM_P1;HPM_P2
2021/01/11 00:00:23;;;;;;;5.62;3.75;;;;;;;8.96;70.76;100867.97;4424765;32;20021;-77
2021/01/11 00:02:50;;;;;;;5.78;3.65;;;;;;;8.87;70.73;100851.66;4423315;32;20091;-77
2021/01/11 00:05:16;;;;;;;6.30;4.00;;;;;;;8.80;70.56;100854.56;4422886;32;20073;-77
2021/01/11 00:07:42;;;;;;;5.55;3.53;;;;;;;8.69;70.84;100839.12;4425926;32;20064;-78
2021/01/11 00:10:10;;;;;;;6.20;3.78;;;;;;;8.76;70.55;100837.00;4420750;32;20366;-77
2021/01/11 00:12:39;;;;;;;6.32;3.53;;;;;;;8.66;70.55;100842.75;4417240;32;20026;-78
2021/01/11 00:15:07;;;;;;;6.20;3.47;;;;;;;8.61;70.58;100838.41;4423199;32;20050;-76
2021/01/11 00:17:34;;;;;;;4.65;3.78;;;;;;;8.75;70.24;100852.25;4425515;32;20395;-76
2021/01/11 00:20:00;;;;;;;4.60;3.45;;;;;;;8.47;70.40;100840.66;4424297;32;20082;-78
2021/01/11 00:22:25;;;;;;;6.03;3.50;;;;;;;8.46;70.27;100820.22;4418902;32;20092;-77
2021/01/11 00:24:51;;;;;;;7.22;3.60;;;;;;;8.23;71.08;100842.56;4419787;32;20098;-77
2021/01/11 00:27:17;;;;;;;4.53;3.30;;;;;;;8.25;70.96;100823.28;4426023;32;20422;-76
2021/01/11 00:29:43;;;;;;;9.75;4.32;;;;;;;8.25;70.70;100837.31;4420981;32;20078;-76
2021/01/11 00:32:08;;;;;;;6.03;2.87;;;;;;;8.26;70.54;100824.09;4419825;32;20045;-77
2021/01/11 00:34:34;;;;;;;5.22;3.50;;;;;;;8.27;70.23;100820.88;4434715;26;20173;-77
2021/01/11 00:37:00;;;;;;;5.15;2.42;;;;;;;8.26;69.81;100805.28;4428479;32;20051;-80
2021/01/11 00:39:28;;;;;;;4.05;2.22;;;;;;;8.36;68.81;100828.75;4413135;32;20037;-76
2021/01/11 00:41:58;;;;;;;3.00;1.87;;;;;;;8.27;68.26;100831.28;4426169;32;20022;-75
2021/01/11 00:44:24;;;;;;;6.50;2.08;;;;;;;8.29;68.33;100828.88;4426543;32;20052;-74
2021/01/11 00:46:50;;;;;;;4.10;2.08;;;;;;;8.31;68.08;100807.59;4426469;32;20041;-78
2021/01/11 00:49:16;;;;;;;4.25;2.05;;;;;;;8.22;67.70;100832.56;4422632;32;20025;-77
2021/01/11 00:51:42;;;;;;;6.80;2.80;;;;;;;8.29;67.71;100832.47;4424369;32;20136;-77
2021/01/11 00:54:08;;;;;;;3.28;2.15;;;;;;;8.26;68.52;100824.09;4426908;32;20030;-77
2021/01/11 00:56:33;;;;;;;7.05;3.47;;;;;;;8.35;68.73;100821.59;4427166;32;20025;-80
2021/01/11 00:58:59;;;;;;;5.05;2.15;;;;;;;8.25;68.87;100814.88;4424377;32;20098;-75
2021/01/11 01:01:25;;;;;;;6.03;3.03;;;;;;;8.26;68.41;100804.47;4423255;32;20068;-76
2021/01/11 01:03:51;;;;;;;5.68;2.70;;;;;;;8.14;68.75;100811.41;4421819;32;20356;-75
2021/01/11 01:06:17;;;;;;;5.25;3.15;;;;;;;8.15;69.38;100819.41;4427098;32;20069;-77
2021/01/11 01:08:43;;;;;;;5.45;3.58;;;;;;;8.12;70.06;100813.84;4425844;32;20056;-77
2021/01/11 01:11:10;;;;;;;5.47;3.08;;;;;;;8.16;70.11;100817.38;4424445;32;20030;-76
2021/01/11 01:13:36;;;;;;;6.12;3.25;;;;;;;8.18;70.22;100814.97;4422854;32;20033;-76
2021/01/11 01:16:02;;;;;;;8.05;3.20;;;;;;;8.16;70.13;100835.00;4424622;32;20460;-77
2021/01/11 01:18:27;;;;;;;5.40;2.70;;;;;;;8.20;70.00;100827.31;4427100;32;20056;-77
2021/01/11 01:20:53;;;;;;;6.15;2.83;;;;;;;8.24;69.76;100826.53;4418591;32;20031;-78
2021/01/11 01:23:19;;;;;;;5.87;2.75;;;;;;;8.16;69.69;100840.59;4421581;32;20026;-79
2021/01/11 01:25:44;;;;;;;4.35;2.60;;;;;;;8.20;69.71;100823.75;4423041;32;20033;-76
2021/01/11 01:28:10;;;;;;;4.45;2.33;;;;;;;8.27;69.25;100818.06;4423734;32;20097;-77
2021/01/11 01:30:36;;;;;;;5.90;2.40;;;;;;;8.28;68.29;100819.66;4427359;32;20070;-77
2021/01/11 01:33:02;;;;;;;3.47;2.10;;;;;;;8.33;68.16;100824.00;4424977;32;20430;-77
2021/01/11 01:35:29;;;;;;;5.20;2.40;;;;;;;8.24;68.36;100827.31;4430573;32;20124;-78
2021/01/11 01:37:55;;;;;;;4.68;2.00;;;;;;;8.23;68.62;100827.75;4420788;32;20046;-78
2021/01/11 01:40:22;;;;;;;5.43;2.47;;;;;;;8.24;68.50;100832.94;4424907;32;20065;-78
2021/01/11 01:42:48;;;;;;;4.78;1.90;;;;;;;8.20;68.20;100827.31;4425204;32;20044;-75
2021/01/11 01:45:14;;;;;;;4.82;2.37;;;;;;;8.22;67.85;100818.53;4425260;32;20055;-79
2021/01/11 01:47:39;;;;;;;4.47;2.20;;;;;;;8.24;67.92;100824.53;4425880;32;20038;-76
2021/01/11 01:50:07;;;;;;;4.97;2.37;;;;;;;8.24;68.05;100821.72;4423275;32;20064;-76
2021/01/11 01:52:36;;;;;;;4.10;2.15;;;;;;;8.27;68.24;100818.06;4422256;32;20037;-81
2021/01/11 01:55:04;;;;;;;10.80;2.28;;;;;;;8.28;68.13;100827.28;4427430;32;20156;-79
2021/01/11 01:57:29;;;;;;;3.97;2.12;;;;;;;8.26;67.52;100824.91;4429673;32;20029;-77
2021/01/11 01:59:55;;;;;;;6.03;1.98;;;;;;;8.26;67.44;100819.28;4425976;32;20135;-77
2021/01/11 02:02:21;;;;;;;4.55;1.80;;;;;;;8.41;66.83;100806.69;4426118;32;20120;-78
2021/01/11 02:04:47;;;;;;;5.55;1.67;;;;;;;8.39;66.76;100795.06;4421455;32;20030;-76
2021/01/11 02:07:37;;;;;;;5.22;1.70;;;;;;;8.35;66.80;100796.34;4427412;32;20034;-80
2021/01/11 02:13:00;;;;;;;4.28;1.58;;;;;;;8.95;65.45;100808.22;3988682;31;15707385;-77
2021/01/11 02:18:27;;;;;;;2.65;1.58;;;;;;;8.63;66.24;100799.53;3986659;32;15023052;-77
2021/01/11 02:21:08;;;;;;;6.80;1.50;;;;;;;8.57;66.06;100803.22;4438040;32;20072;-77
2021/01/11 02:24:14;;;;;;;4.18;1.40;;;;;;;8.49;65.83;100801.72;4444883;32;20480;-77
2021/01/11 02:31:55;;;;;;;4.40;1.85;;;;;;;9.05;65.33;100800.88;4007983;31;15017889;-76
2021/01/11 02:34:22;;;;;;;5.50;1.90;;;;;;;9.05;65.33;100800.88;4458654;32;20021;-77
2021/01/11 02:36:48;;;;;;;5.05;1.80;;;;;;;8.55;66.50;100808.44;4442651;32;20526;-77
2021/01/11 02:39:14;;;;;;;3.85;1.65;;;;;;;8.49;66.63;100794.13;4454602;32;20053;-76
2021/01/11 02:41:39;;;;;;;2.45;1.60;;;;;;;8.47;66.70;100790.16;4449631;32;20037;-76
2021/01/11 02:44:05;;;;;;;3.25;1.67;;;;;;;8.50;66.71;100783.72;4456972;32;20059;-75
2021/01/11 02:46:31;;;;;;;4.18;1.58;;;;;;;8.52;66.59;100793.28;4451957;32;20041;-77
2021/01/11 02:48:59;;;;;;;2.20;1.40;;;;;;;8.50;66.66;100792.91;4458144;32;20063;-77
2021/01/11 02:54:27;;;;;;;3.62;1.20;;;;;;;8.88;66.72;100799.13;3987429;32;15024859;-77
2021/01/11 02:59:43;;;;;;;3.75;1.15;;;;;;;8.65;66.83;100777.44;3984651;32;15026467;-78
2021/01/11 03:02:13;;;;;;;4.53;1.40;;;;;;;8.60;66.70;100774.34;4441405;32;20076;-75
2021/01/11 03:04:39;;;;;;;2.90;1.50;;;;;;;8.66;66.61;100781.03;4438114;32;20056;-79
2021/01/11 03:07:06;;;;;;;3.08;1.42;;;;;;;8.65;66.38;100773.88;4442789;32;20077;-78
2021/01/11 03:09:35;;;;;;;3.35;1.73;;;;;;;8.68;66.31;100785.00;4440675;32;20374;-76
2021/01/11 03:12:01;;;;;;;2.83;1.30;;;;;;;8.70;66.20;100776.97;4440456;32;20372;-79
2021/01/11 03:14:27;;;;;;;2.60;1.50;;;;;;;8.69;65.92;100775.41;4439623;32;20430;-76
2021/01/11 03:16:53;;;;;;;5.07;1.40;;;;;;;8.55;66.28;100791.62;4436201;32;20441;-78
2021/01/11 03:19:19;;;;;;;4.97;1.50;;;;;;;8.60;66.23;100777.13;4442673;32;20389;-79
2021/01/11 03:21:45;;;;;;;3.90;1.55;;;;;;;8.57;65.66;100770.38;4432551;32;20372;-79
2021/01/11 03:24:14;;;;;;;6.20;1.33;;;;;;;8.72;65.68;100765.31;4441619;32;20022;-77
2021/01/11 03:26:40;;;;;;;3.40;1.55;;;;;;;8.73;65.47;100762.09;4439963;32;20783;-76
2021/01/11 03:29:06;;;;;;;3.90;1.60;;;;;;;8.61;65.59;100770.28;4438086;32;20468;-78
2021/01/11 03:31:32;;;;;;;3.90;1.65;;;;;;;8.60;65.48;100761.09;4437708;32;20029;-76
2021/01/11 03:33:58;;;;;;;2.03;1.25;;;;;;;8.69;64.94;100758.56;4443504;32;20397;-77
2021/01/11 03:36:24;;;;;;;4.22;1.30;;;;;;;8.75;65.04;100770.09;4427991;32;20061;-75
2021/01/11 03:38:50;;;;;;;4.37;1.45;;;;;;;8.74;65.17;100774.88;4422712;32;20112;-76
2021/01/11 03:41:16;;;;;;;3.60;1.30;;;;;;;8.76;64.50;100782.87;4426475;32;20501;-75
2021/01/11 03:43:43;;;;;;;5.20;1.73;;;;;;;8.90;64.54;100777.06;4421218;32;20378;-76
2021/01/11 03:46:12;;;;;;;3.65;1.20;;;;;;;9.00;64.02;100774.06;4424497;32;20074;-80
2021/01/11 03:48:39;;;;;;;2.53;1.40;;;;;;;9.11;63.37;100762.66;4425684;32;20084;-78
2021/01/11 03:51:05;;;;;;;3.55;1.25;;;;;;;9.16;63.41;100768.56;4423063;32;20088;-78
2021/01/11 03:53:31;;;;;;;4.87;1.60;;;;;;;9.22;62.95;100763.25;4425268;32;20136;-75
2021/01/11 03:55:57;;;;;;;5.75;1.70;;;;;;;9.12;63.19;100770.66;4424838;32;20382;-76
2021/01/11 03:58:22;;;;;;;2.85;1.45;;;;;;;9.05;63.25;100753.91;4426082;32;20041;-77
2021/01/11 04:00:49;;;;;;;3.33;1.85;;;;;;;9.02;63.81;100751.97;4423784;32;20056;-77
2021/01/11 04:03:15;;;;;;;3.37;1.92;;;;;;;9.14;63.77;100747.78;4422365;32;20033;-78
2021/01/11 04:05:45;;;;;;;2.62;1.62;;;;;;;9.10;63.82;100742.22;4424340;32;20026;-78
2021/01/11 04:08:12;;;;;;;2.92;1.98;;;;;;;9.21;63.30;100731.56;4429466;32;20064;-78
2021/01/11 04:10:37;;;;;;;6.22;2.10;;;;;;;9.31;62.73;100724.16;4411838;32;20078;-77
2021/01/11 04:13:04;;;;;;;3.45;1.40;;;;;;;9.16;63.71;100720.84;4410749;32;20065;-76
2021/01/11 04:15:29;;;;;;;4.93;1.48;;;;;;;9.09;64.07;100706.12;4416356;32;20406;-78
2021/01/11 04:17:55;;;;;;;5.50;2.00;;;;;;;9.14;64.07;100706.44;4414281;32;20064;-80
2021/01/11 04:20:21;;;;;;;2.80;1.83;;;;;;;9.09;64.04;100698.53;4411010;32;20052;-79
2021/01/11 04:22:47;;;;;;;2.45;1.50;;;;;;;9.06;64.52;100687.34;4409739;32;20068;-75
2021/01/11 04:25:12;;;;;;;2.83;1.30;;;;;;;9.07;64.06;100672.88;4415301;32;20037;-75
2021/01/11 04:27:38;;;;;;;2.47;1.30;;;;;;;8.87;64.26;100674.84;4415259;32;20470;-76
2021/01/11 04:30:05;;;;;;;2.47;1.55;;;;;;;8.81;64.92;100665.34;4411343;32;20169;-78
2021/01/11 04:32:31;;;;;;;2.70;1.45;;;;;;;8.79;65.16;100678.22;4414181;32;20736;-76
2021/01/11 04:34:57;;;;;;;4.43;1.40;;;;;;;8.78;65.02;100679.44;4413308;32;20449;-80
2021/01/11 04:37:23;;;;;;;3.20;1.27;;;;;;;8.79;65.42;100684.63;4411738;32;20061;-78
2021/01/11 04:39:48;;;;;;;3.20;1.17;;;;;;;8.80;64.64;100669.38;4415156;32;20081;-78
2021/01/11 04:42:22;;;;;;;3.70;1.30;;;;;;;8.76;64.69;100668.66;4407656;32;20531;-79
2021/01/11 04:44:47;;;;;;;2.97;1.20;;;;;;;8.84;64.83;100661.69;4411268;32;20038;-77
2021/01/11 04:47:13;;;;;;;1.65;1.10;;;;;;;8.89;64.48;100657.59;4411345;32;20202;-76
2021/01/11 04:49:39;;;;;;;3.42;1.50;;;;;;;8.83;64.72;100662.91;4415766;32;20136;-77
2021/01/11 04:52:07;;;;;;;2.75;1.20;;;;;;;8.81;65.27;100642.88;4415250;32;20073;-78
2021/01/11 04:54:36;;;;;;;2.25;1.23;;;;;;;8.82;65.43;100652.12;4408232;32;20153;-79
2021/01/11 04:57:03;;;;;;;3.72;1.27;;;;;;;8.78;65.29;100631.75;4418847;32;20452;-79
2021/01/11 04:59:32;;;;;;;3.20;1.20;;;;;;;8.71;65.63;100638.28;4416256;32;20056;-76
2021/01/11 05:02:00;;;;;;;2.42;1.23;;;;;;;8.85;65.39;100634.41;4414315;32;20141;-77
2021/01/11 05:04:26;;;;;;;5.07;1.08;;;;;;;8.81;65.34;100630.91;4407856;32;20034;-78
2021/01/11 05:07:02;;;;;;;2.75;0.98;;;;;;;8.57;65.74;100623.72;4406958;32;20022;-73
2021/01/11 05:09:28;;;;;;;5.40;1.35;;;;;;;8.55;65.69;100640.97;4408656;32;20026;-77
2021/01/11 05:11:55;;;;;;;1.87;1.30;;;;;;;8.47;66.12;100635.91;4413588;32;20558;-79
2021/01/11 05:14:21;;;;;;;4.28;1.15;;;;;;;8.54;66.34;100624.56;4410519;32;20030;-77
2021/01/11 05:17:04;;;;;;;1.20;1.02;;;;;;;8.38;66.63;100624.47;4416750;32;20052;-78
2021/01/11 05:19:29;;;;;;;3.12;1.30;;;;;;;8.38;66.51;100616.84;4409829;32;20122;-79
2021/01/11 05:21:55;;;;;;;3.58;1.27;;;;;;;8.33;67.01;100600.50;4409999;32;20065;-77
2021/01/11 05:27:09;;;;;;;2.25;1.08;;;;;;;8.75;66.09;100607.34;3988212;32;15079307;-77
2021/01/11 05:29:36;;;;;;;3.87;0.95;;;;;;;8.75;66.09;100607.34;4444023;32;20017;-78
2021/01/11 05:32:05;;;;;;;3.10;1.30;;;;;;;8.28;67.05;100589.75;4445445;32;20030;-75
2021/01/11 05:34:49;;;;;;;2.78;1.10;;;;;;;8.25;67.60;100579.41;4433441;32;20022;-77
2021/01/11 05:37:37;;;;;;;4.60;1.17;;;;;;;8.24;67.66;100599.44;4428866;32;20068;-77
2021/01/11 05:42:47;;;;;;;1.60;0.90;;;;;;;8.73;66.89;100610.59;4000686;31;15016364;-78
2021/01/11 05:45:17;;;;;;;1.08;0.82;;;;;;;8.73;66.89;100610.59;4462185;32;20037;-77
2021/01/11 05:50:37;;;;;;;4.45;1.30;;;;;;;8.62;67.25;100609.97;3988458;32;15023091;-78
2021/01/11 05:53:04;;;;;;;3.45;1.37;;;;;;;8.62;67.25;100609.97;4444080;32;20402;-77
2021/01/11 05:55:32;;;;;;;6.05;1.50;;;;;;;8.18;68.30;100591.50;4442255;32;20137;-76
2021/01/11 06:00:35;;;;;;;4.03;1.53;;;;;;;8.49;68.36;100580.97;4009135;31;15018778;-79
2021/01/11 06:03:02;;;;;;;3.65;1.62;;;;;;;8.49;68.36;100580.97;4460570;32;20150;-78
2021/01/11 06:05:30;;;;;;;5.50;1.55;;;;;;;8.06;69.08;100596.91;4462690;32;20071;-75
2021/01/11 06:07:57;;;;;;;3.70;1.90;;;;;;;8.15;69.19;100589.56;4460349;32;20072;-75
2021/01/11 06:10:24;;;;;;;4.87;1.48;;;;;;;8.18;69.30;100599.94;4460765;32;20068;-77
2021/01/11 06:12:50;;;;;;;4.20;1.83;;;;;;;8.19;69.21;100600.69;4458741;32;20071;-78
2021/01/11 06:15:19;;;;;;;5.03;1.80;;;;;;;8.28;69.26;100597.41;4461885;32;20097;-76
2021/01/11 06:17:46;;;;;;;5.40;1.55;;;;;;;8.28;69.44;100594.59;4462200;32;20425;-76
2021/01/11 06:20:16;;;;;;;3.50;1.80;;;;;;;8.16;70.17;100602.34;4461949;32;20032;-77
2021/01/11 06:35:54;;;;;;;5.22;1.90;;;;;;;8.63;70.27;100589.16;3987383;32;15024744;-76
2021/01/11 06:49:24;;;;;;;4.65;3.37;;;;;;;8.68;70.71;100569.00;3987335;32;15024158;-78
2021/01/11 06:52:00;;;;;;;11.77;3.53;;;;;;;8.68;70.71;100569.00;4442986;32;20029;-78
2021/01/11 06:54:35;;;;;;;8.93;3.83;;;;;;;8.33;71.38;100564.06;4442940;32;20142;-77
2021/01/11 06:57:08;;;;;;;7.47;3.55;;;;;;;8.28;71.15;100560.97;4439533;32;20030;-75
2021/01/11 06:59:38;;;;;;;6.10;3.22;;;;;;;8.33;71.36;100569.66;4431417;32;20073;-75
2021/01/11 07:02:25;;;;;;;6.93;3.65;;;;;;;8.28;71.50;100560.97;4431655;32;20098;-76
2021/01/11 07:04:53;;;;;;;7.47;3.50;;;;;;;8.14;71.87;100551.53;4440166;32;20121;-75
2021/01/11 07:07:22;;;;;;;6.53;3.90;;;;;;;8.07;72.33;100560.06;4435408;32;20081;-77
2021/01/11 07:12:28;;;;;;;8.15;5.25;;;;;;;8.27;72.72;100571.38;4005807;31;15017324;-75
2021/01/11 07:17:38;;;;;;;8.43;4.03;;;;;;;8.17;73.82;100553.47;3986961;32;15027684;-75
2021/01/11 07:20:07;;;;;;;4.62;3.10;;;;;;;8.17;73.82;100553.47;4435930;32;20088;-77
2021/01/11 07:22:33;;;;;;;4.12;2.62;;;;;;;7.85;74.59;100546.81;4433876;32;20060;-74
2021/01/11 07:25:06;;;;;;;5.12;3.05;;;;;;;7.78;74.69;100539.34;4439970;32;20025;-76
2021/01/11 07:27:32;;;;;;;3.20;2.40;;;;;;;7.70;74.99;100529.44;4435641;32;20733;-78
2021/01/11 07:29:57;;;;;;;5.68;2.45;;;;;;;7.55;75.07;100525.28;4436685;32;20037;-77
2021/01/11 07:32:23;;;;;;;2.40;2.10;;;;;;;7.65;74.86;100523.53;4435030;32;20085;-77
2021/01/11 07:34:49;;;;;;;6.37;2.42;;;;;;;7.70;74.76;100512.66;4445067;32;20056;-77
2021/01/11 07:37:15;;;;;;;5.57;2.12;;;;;;;7.66;74.92;100517.53;4444028;32;20084;-74
2021/01/11 07:39:40;;;;;;;6.53;2.00;;;;;;;7.71;75.24;100527.44;4444610;32;20345;-78
2021/01/11 07:42:07;;;;;;;8.80;3.30;;;;;;;7.71;75.16;100527.44;4445076;32;20116;-77
2021/01/11 07:47:11;;;;;;;2.97;2.10;;;;;;;8.18;74.20;100515.03;3960179;32;15724430;-76
2021/01/11 07:49:40;;;;;;;3.37;1.98;;;;;;;8.18;74.20;100515.03;4439254;32;20047;-75
2021/01/11 07:52:09;;;;;;;4.78;2.20;;;;;;;7.83;74.53;100529.66;4439809;32;20037;-77
2021/01/11 07:54:36;;;;;;;5.93;2.10;;;;;;;7.84;74.63;100526.44;4440689;32;20034;-76
2021/01/11 07:57:07;;;;;;;6.75;2.58;;;;;;;7.84;74.55;100526.44;4424687;32;20363;-78
2021/01/11 07:59:32;;;;;;;4.68;2.50;;;;;;;7.94;74.46;100524.66;4440907;32;20124;-78
2021/01/11 08:02:01;;;;;;;5.15;2.80;;;;;;;7.81;74.97;100532.09;4423138;32;20038;-79
2021/01/11 08:04:35;;;;;;;5.70;2.40;;;;;;;7.88;74.85;100537.56;4438196;32;20073;-77
2021/01/11 08:07:06;;;;;;;2.30;1.87;;;;;;;7.91;75.15;100540.31;4441827;32;20041;-77
2021/01/11 08:09:32;;;;;;;8.70;2.47;;;;;;;7.94;75.38;100530.25;4436434;32;20023;-76
2021/01/11 08:14:44;;;;;;;3.45;1.92;;;;;;;8.40;74.35;100530.28;3987520;32;15024718;-76
2021/01/11 08:17:15;;;;;;;4.72;2.53;;;;;;;8.40;74.35;100530.28;4442503;32;20344;-76
2021/01/11 08:19:42;;;;;;;4.35;2.10;;;;;;;8.01;74.85;100528.13;4439498;32;20069;-75
2021/01/11 08:22:10;;;;;;;4.35;2.10;;;;;;;7.91;75.10;100525.50;4436877;32;20049;-75
2021/01/11 08:24:36;;;;;;;5.72;2.20;;;;;;;7.97;75.15;100515.41;4438782;32;20167;-78
2021/01/11 08:29:41;;;;;;;6.28;2.65;;;;;;;8.43;74.40;100518.19;3984472;32;15029798;-77
2021/01/11 08:32:10;;;;;;;5.15;2.87;;;;;;;8.43;74.40;100518.19;4435942;32;20065;-77
2021/01/11 08:34:37;;;;;;;4.75;2.00;;;;;;;8.13;74.80;100512.72;4424489;32;20092;-77
2021/01/11 08:42:41;;;;;;;6.85;4.50;;;;;;;8.57;74.36;100522.75;3985918;32;15037072;-78
2021/01/11 08:45:34;;;;;;;8.23;4.25;;;;;;;8.57;74.36;100522.75;4443040;32;20059;-76
2021/01/11 08:48:04;;;;;;;10.45;4.28;;;;;;;8.21;75.05;100514.19;4438781;32;20418;-78
2021/01/11 08:50:31;;;;;;;7.45;4.22;;;;;;;8.22;75.04;100515.78;4441659;32;20045;-77
2021/01/11 08:52:57;;;;;;;6.07;3.78;;;;;;;8.14;75.20;100517.12;4439184;32;20531;-79
2021/01/11 08:55:23;;;;;;;7.18;3.92;;;;;;;8.26;74.91;100512.94;4441940;32;20437;-76
2021/01/11 08:58:04;;;;;;;5.37;2.90;;;;;;;8.20;75.07;100524.59;4445255;32;20582;-76
2021/01/11 09:00:31;;;;;;;4.78;3.03;;;;;;;8.27;74.98;100506.09;4445487;32;20083;-77
2021/01/11 09:02:56;;;;;;;4.28;2.45;;;;;;;8.22;75.21;100518.59;4442997;32;20018;-76
2021/01/11 09:05:23;;;;;;;4.45;2.40;;;;;;;8.26;75.03;100510.91;4441453;32;20062;-78
2021/01/11 09:07:51;;;;;;;5.15;2.12;;;;;;;8.40;74.57;100507.84;4442986;32;20094;-77
2021/01/11 09:10:18;;;;;;;2.78;1.90;;;;;;;8.47;73.95;100476.84;4441966;32;20096;-76
2021/01/11 09:12:44;;;;;;;5.10;2.00;;;;;;;8.62;73.78;100520.22;4436149;32;20390;-77
2021/01/11 09:15:10;;;;;;;5.25;2.58;;;;;;;8.66;73.67;100506.94;4443103;32;20104;-79
2021/01/11 09:17:36;;;;;;;7.85;2.03;;;;;;;8.73;73.38;100511.59;4442597;32;20021;-79
2021/01/11 09:20:05;;;;;;;5.95;2.80;;;;;;;8.84;72.86;100509.38;4442262;32;20410;-77
2021/01/11 09:22:39;;;;;;;5.37;1.55;;;;;;;8.86;72.51;100524.56;4440552;32;20078;-77
2021/01/11 09:25:10;;;;;;;2.30;1.70;;;;;;;8.79;72.93;100512.69;4434673;32;20456;-75
2021/01/11 09:27:39;;;;;;;5.90;1.60;;;;;;;8.99;71.80;100502.25;4441952;32;20045;-78
2021/01/11 09:30:09;;;;;;;2.00;1.23;;;;;;;8.78;73.34;100511.91;4428851;32;20085;-76
2021/01/11 09:32:35;;;;;;;4.93;1.77;;;;;;;8.73;73.47;100515.22;4432048;32;20082;-77
2021/01/11 09:35:03;;;;;;;2.35;1.67;;;;;;;8.67;73.85;100500.09;4429010;32;20064;-77
2021/01/11 09:37:30;;;;;;;4.18;2.00;;;;;;;8.62;74.07;100497.00;4421264;32;20077;-77
2021/01/11 09:39:59;;;;;;;3.67;1.67;;;;;;;8.51;74.58;100497.22;4420567;32;20123;-78
2021/01/11 09:42:24;;;;;;;4.40;1.60;;;;;;;8.52;74.50;100503.59;4424318;32;20106;-77
2021/01/11 09:44:50;;;;;;;2.55;1.20;;;;;;;8.52;74.24;100490.38;4429067;32;20542;-78
2021/01/11 09:47:16;;;;;;;2.30;1.42;;;;;;;8.60;74.24;100493.84;4426187;32;20060;-76
2021/01/11 09:49:42;;;;;;;2.95;1.35;;;;;;;8.66;73.99;100483.69;4425214;32;20136;-77
2021/01/11 09:52:08;;;;;;;2.08;1.33;;;;;;;8.58;74.17;100485.06;4421559;32;20046;-75
2021/01/11 09:54:34;;;;;;;3.25;1.70;;;;;;;8.59;74.01;100487.44;4412020;32;20397;-76
2021/01/11 09:56:59;;;;;;;0.85;0.70;;;;;;;8.49;74.60;100460.41;4414115;32;20546;-75
2021/01/11 09:59:25;;;;;;;3.05;1.27;;;;;;;8.50;74.52;100456.34;4415577;32;20057;-75
2021/01/11 10:01:54;;;;;;;2.17;1.23;;;;;;;8.42;75.10;100463.34;4414342;32;20054;-76
2021/01/11 10:04:20;;;;;;;4.18;0.95;;;;;;;8.40;75.20;100440.53;4420196;32;20046;-74
2021/01/11 10:09:25;;;;;;;4.57;1.42;;;;;;;8.32;75.83;100410.28;3984341;32;15059597;-76
2021/01/11 10:11:53;;;;;;;4.40;1.67;;;;;;;8.22;76.26;100428.09;4437523;32;20037;-79
2021/01/11 10:14:20;;;;;;;4.05;1.40;;;;;;;8.11;76.73;100448.66;4434879;32;20081;-79
2021/01/11 10:16:46;;;;;;;3.33;1.80;;;;;;;8.12;76.98;100441.06;4434392;32;20037;-76
2021/01/11 10:19:17;;;;;;;3.05;1.27;;;;;;;8.10;77.04;100433.09;4435397;32;20045;-78
2021/01/11 10:21:43;;;;;;;2.22;1.23;;;;;;;8.16;77.06;100450.19;4436938;32;20077;-77
2021/01/11 10:24:11;;;;;;;2.20;1.10;;;;;;;8.10;77.30;100419.06;4434193;32;20353;-77
2021/01/11 10:26:40;;;;;;;4.47;1.12;;;;;;;8.17;77.12;100430.13;4440389;32;20104;-77
2021/01/11 10:29:06;;;;;;;3.10;1.60;;;;;;;8.20;76.85;100437.69;4433678;32;20017;-76
2021/01/11 10:31:31;;;;;;;3.53;1.23;;;;;;;8.18;76.74;100439.34;4436769;32;20122;-77
2021/01/11 10:33:58;;;;;;;2.72;1.40;;;;;;;8.26;76.54;100440.03;4427239;32;20049;-77
2021/01/11 10:36:24;;;;;;;3.33;1.30;;;;;;;8.31;76.23;100439.56;4420742;32;20073;-77
2021/01/11 10:38:49;;;;;;;2.35;1.40;;;;;;;8.42;75.65;100452.12;4425129;32;20050;-75
2021/01/11 10:41:17;;;;;;;5.60;1.42;;;;;;;8.47;75.47;100442.44;4422116;32;20033;-76
2021/01/11 10:43:45;;;;;;;3.72;1.42;;;;;;;8.49;75.38;100440.75;4418644;32;20048;-75
2021/01/11 10:46:12;;;;;;;4.55;1.30;;;;;;;8.54;75.09;100422.63;4420064;32;20042;-75
2021/01/11 10:48:39;;;;;;;3.60;1.30;;;;;;;8.41;75.27;100436.53;4420863;32;20090;-75
2021/01/11 10:51:08;;;;;;;1.37;0.70;;;;;;;8.61;74.88;100431.69;4418456;32;20042;-75
2021/01/11 10:53:33;;;;;;;2.50;1.10;;;;;;;8.65;74.46;100431.62;4417364;32;20061;-75
2021/01/11 10:55:59;;;;;;;7.12;1.75;;;;;;;8.65;74.33;100421.19;4420283;32;20027;-75
2021/01/11 10:58:25;;;;;;;1.87;0.95;;;;;;;8.75;73.86;100419.38;4415448;32;20488;-74
2021/01/11 11:00:50;;;;;;;2.10;1.00;;;;;;;8.79;73.68;100418.09;4423301;32;20081;-75
2021/01/11 11:03:16;;;;;;;3.42;1.02;;;;;;;8.84;73.44;100405.56;4408681;32;20069;-76
2021/01/11 11:05:42;;;;;;;2.53;1.20;;;;;;;8.76;73.36;100418.97;4420298;32;20061;-75
2021/01/11 11:08:07;;;;;;;2.10;1.08;;;;;;;8.75;73.88;100417.38;4420800;32;20130;-76
2021/01/11 11:10:33;;;;;;;2.37;0.93;;;;;;;8.82;73.89;100383.56;4415730;32;20089;-75
2021/01/11 11:12:59;;;;;;;2.25;0.98;;;;;;;8.83;73.57;100389.94;4424184;32;20030;-79
2021/01/11 11:15:24;;;;;;;2.87;1.25;;;;;;;8.85;73.60;100387.50;4424906;32;20030;-77
2021/01/11 11:17:50;;;;;;;2.53;1.25;;;;;;;8.78;74.29;100371.63;4423668;32;20132;-75
2021/01/11 11:20:16;;;;;;;3.78;1.27;;;;;;;8.76;74.26;100374.06;4414041;32;20473;-77
2021/01/11 11:22:42;;;;;;;3.12;1.30;;;;;;;8.76;74.69;100376.06;4409587;32;20072;-78
2021/01/11 11:25:08;;;;;;;4.65;1.83;;;;;;;8.53;75.72;100367.78;4408612;32;20081;-77
2021/01/11 11:27:35;;;;;;;3.60;1.50;;;;;;;8.52;75.59;100355.78;4404319;32;20030;-76
2021/01/11 11:30:04;;;;;;;3.08;1.48;;;;;;;8.26;76.51;100325.09;4409645;32;20090;-79
2021/01/11 11:32:30;;;;;;;6.90;1.60;;;;;;;8.38;77.22;100366.50;4412877;32;20079;-80
2021/01/11 11:34:56;;;;;;;7.40;1.80;;;;;;;8.17;78.46;100351.66;4411538;32;20044;-76
2021/01/11 11:37:23;;;;;;;7.15;2.05;;;;;;;8.24;78.84;100347.97;4408910;32;20159;-77
2021/01/11 11:39:48;;;;;;;4.53;2.25;;;;;;;8.12;79.57;100345.78;4414068;32;20017;-76
2021/01/11 11:42:14;;;;;;;4.30;2.08;;;;;;;8.18;79.87;100358.87;4413353;32;20065;-75
2021/01/11 11:44:40;;;;;;;4.72;2.03;;;;;;;8.15;79.83;100354.12;4406528;32;20484;-79
2021/01/11 11:47:06;;;;;;;9.40;2.47;;;;;;;8.21;80.06;100362.81;4407924;32;20046;-77
2021/01/11 11:49:32;;;;;;;4.47;2.22;;;;;;;8.24;80.37;100355.56;4411688;32;20109;-78
2021/01/11 11:51:58;;;;;;;8.02;2.28;;;;;;;8.26;80.55;100353.94;4410676;32;20136;-78
2021/01/11 11:54:23;;;;;;;4.68;2.10;;;;;;;8.22;80.78;100349.59;4411845;32;20026;-79
2021/01/11 11:56:49;;;;;;;5.15;2.03;;;;;;;8.19;81.37;100345.63;4413327;32;20422;-77
2021/01/11 11:59:15;;;;;;;5.32;2.33;;;;;;;8.16;81.86;100354.91;4407854;32;20060;-75
2021/01/11 12:01:41;;;;;;;5.32;2.05;;;;;;;8.16;82.17;100347.28;4407469;32;20050;-77
2021/01/11 12:04:08;;;;;;;4.12;2.33;;;;;;;8.19;82.20;100351.22;4420998;32;20123;-77
2021/01/11 12:06:43;;;;;;;3.53;1.95;;;;;;;8.17;82.94;100345.28;4405276;32;20082;-79
2021/01/11 12:09:09;;;;;;;4.65;1.90;;;;;;;8.24;82.86;100335.94;4407675;32;20382;-79
2021/01/11 12:11:40;;;;;;;3.92;1.67;;;;;;;8.15;83.32;100344.91;4406229;32;20082;-76
2021/01/11 12:14:05;;;;;;;5.43;2.00;;;;;;;8.08;83.96;100329.03;4406220;32;20417;-77
2021/01/11 12:16:31;;;;;;;2.50;1.52;;;;;;;7.94;83.99;100326.53;4407617;32;20091;-76
2021/01/11 12:18:57;;;;;;;4.03;1.60;;;;;;;8.00;84.60;100332.41;4409050;32;20502;-77
2021/01/11 12:21:37;;;;;;;8.35;1.70;;;;;;;8.10;84.65;100337.81;4407740;32;20076;-74
2021/01/11 12:24:04;;;;;;;3.03;1.50;;;;;;;8.19;84.83;100328.81;4412054;32;20074;-76
2021/01/11 12:26:49;;;;;;;5.82;1.50;;;;;;;8.22;85.01;100327.97;4410022;32;20038;-75
2021/01/11 12:29:16;;;;;;;4.55;1.42;;;;;;;8.16;84.54;100324.87;4405800;32;20426;-77
2021/01/11 12:31:44;;;;;;;3.22;1.50;;;;;;;8.13;85.28;100314.53;4410373;32;20064;-73
2021/01/11 12:34:10;;;;;;;1.85;1.30;;;;;;;8.11;85.81;100305.75;4413088;32;20431;-76
2021/01/11 12:36:38;;;;;;;6.40;1.40;;;;;;;8.17;85.90;100304.00;4412836;32;20143;-74
2021/01/11 12:39:07;;;;;;;5.25;1.77;;;;;;;8.20;86.24;100297.53;4412869;32;20057;-76
2021/01/11 12:41:33;;;;;;;3.50;1.42;;;;;;;8.31;86.26;100302.19;4407885;32;20427;-78
2021/01/11 12:43:59;;;;;;;5.30;1.37;;;;;;;8.27;86.13;100293.03;4409765;32;20423;-78
2021/01/11 12:46:25;;;;;;;4.72;1.17;;;;;;;8.23;86.48;100300.75;4407802;32;20132;-78